Time;durP1;ratioP1;P1;durP2;ratioP2;P2;SDS_P1;SDS_P2;PMS_P1;PMS_P2;Temp;Humidity;BMP_temperature;BMP_pressure;BME280_temperature;BME280_humidity;BME280_pressure;Samples;Min_cycle;Max_cycle;Signal;HPM_P1;HPM_P2
2021/11/27 00:01:39;;;;;;;;;0.50;0.00;;;;;5.99;72.32;98587.09;5073672;28;45362;-88
2021/11/27 00:04:05;;;;;;;;;0.25;0.00;;;;;5.35;72.87;98497.16;5073511;28;46126;-88
2021/11/27 00:06:30;;;;;;;;;0.00;0.00;;;;;5.76;72.49;98563.16;5074729;28;45478;-88
2021/11/27 00:08:57;;;;;;;;;0.00;0.00;;;;;5.61;72.52;98534.88;5066231;28;45317;-90
2021/11/27 00:11:22;;;;;;;;;0.00;0.00;;;;;5.92;72.71;98589.75;5071971;28;45822;-89
2021/11/27 00:13:48;;;;;;;;;0.00;0.00;;;;;5.87;72.73;98588.06;5088568;27;46323;-89
2021/11/27 00:16:14;;;;;;;;;0.00;0.00;;;;;5.74;72.46;98564.03;5070291;28;45351;-90
2021/11/27 00:18:39;;;;;;;;;0.00;0.00;;;;;5.65;72.37;98557.22;5074515;28;45340;-91
2021/11/27 00:21:08;;;;;;;;;0.00;0.00;;;;;5.83;72.67;98593.22;5074235;28;45678;-90
2021/11/27 00:23:35;;;;;;;;;0.00;0.00;;;;;5.81;72.55;98584.66;5084477;27;47466;-89
2021/11/27 00:26:02;;;;;;;;;0.00;0.00;;;;;5.66;72.71;98558.91;5074019;28;45439;-86
2021/11/27 00:28:28;;;;;;;;;0.00;0.00;;;;;5.70;72.52;98569.22;5090304;27;45349;-87
2021/11/27 00:31:01;;;;;;;;;0.00;0.00;;;;;5.39;72.25;98520.38;5069705;28;45446;-85
2021/11/27 00:33:27;;;;;;;;;1.00;0.00;;;;;5.65;72.64;98558.09;5070388;28;45416;-88
2021/11/27 00:35:52;;;;;;;;;0.00;0.00;;;;;5.68;72.42;98568.41;5073768;28;45212;-85
2021/11/27 00:38:21;;;;;;;;;0.00;0.00;;;;;5.79;72.45;98585.53;5074062;28;45413;-85
2021/11/27 00:40:47;;;;;;;;;0.00;0.00;;;;;5.82;72.41;98583.78;5063440;28;45484;-87
2021/11/27 00:43:13;;;;;;;;;0.00;0.00;;;;;5.81;72.01;98587.25;5063440;28;47482;-86
2021/11/27 00:45:42;;;;;;;;;0.00;0.00;;;;;5.83;71.96;98582.91;5063598;28;45558;-87
2021/11/27 00:48:10;;;;;;;;;0.00;0.00;;;;;5.72;72.14;98561.47;5063759;28;45304;-87
2021/11/27 00:50:43;;;;;;;;;0.00;0.00;;;;;5.82;71.46;98582.94;5063780;28;45422;-88
2021/11/27 00:53:11;;;;;;;;;0.00;0.00;;;;;5.74;71.86;98584.69;5067655;28;47087;-88
2021/11/27 00:55:37;;;;;;;;;0.00;0.00;;;;;5.83;71.44;98588.06;5065052;28;45508;-87
2021/11/27 00:58:03;;;;;;;;;0.75;0.00;;;;;5.74;71.68;98582.97;5044322;28;45464;-87
2021/11/27 01:00:31;;;;;;;;;0.00;0.00;;;;;5.75;71.67;98595.03;5062874;28;45402;-89
2021/11/27 01:03:03;;;;;;;;;0.00;0.00;;;;;5.61;71.74;98578.75;5062040;28;45257;-86
2021/11/27 01:05:30;;;;;;;;;0.00;0.00;;;;;5.70;71.47;98587.28;5063027;28;45257;-89
2021/11/27 01:07:55;;;;;;;;;0.75;0.00;;;;;5.53;71.78;98560.72;5063246;28;45433;-89
2021/11/27 01:10:24;;;;;;;;;0.00;0.00;;;;;5.30;71.07;98547.09;5078671;28;45267;-87
2021/11/27 01:12:50;;;;;;;;;0.00;0.00;;;;;5.32;70.53;98555.69;5060830;28;47202;-87
2021/11/27 01:15:19;;;;;;;;;0.00;0.00;;;;;5.26;70.74;98566.03;5062125;28;45295;-86
2021/11/27 01:17:47;;;;;;;;;0.00;0.00;;;;;5.00;71.03;98532.63;5060702;28;45466;-88
2021/11/27 01:20:16;;;;;;;;;0.00;0.00;;;;;4.82;70.54;98509.50;5060032;28;45236;-87
2021/11/27 01:22:42;;;;;;;;;0.00;0.00;;;;;5.08;70.35;98561.81;5061954;28;47266;-87
2021/11/27 01:25:08;;;;;;;;;0.00;0.00;;;;;5.07;70.71;98548.06;5061958;28;45299;-87
2021/11/27 01:27:34;;;;;;;;;0.00;0.00;;;;;4.97;69.65;98546.38;5061796;28;45502;-87
2021/11/27 01:30:00;;;;;;;;;0.00;0.00;;;;;4.96;69.52;98551.53;5060551;28;45565;-88
2021/11/27 01:32:26;;;;;;;;;0.00;0.00;;;;;4.72;69.59;98507.81;5060891;28;48639;-87
2021/11/27 01:34:52;;;;;;;;;1.00;1.00;;;;;4.79;68.85;98531.84;5075000;28;45242;-87
2021/11/27 01:37:17;;;;;;;;;0.00;0.00;;;;;4.85;68.79;98541.25;5062468;28;45307;-88
2021/11/27 01:39:44;;;;;;;;;0.00;0.00;;;;;4.82;68.03;98537.84;5062670;28;45194;-87
2021/11/27 01:42:11;;;;;;;;;0.00;0.00;;;;;4.87;67.33;98542.13;5062544;28;46112;-87
2021/11/27 01:44:37;;;;;;;;;0.00;0.00;;;;;4.79;67.77;98537.84;5071253;28;45686;-85
2021/11/27 01:47:04;;;;;;;;;0.00;0.00;;;;;4.61;68.42;98519.84;5073865;28;44821;-88
2021/11/27 01:49:29;;;;;;;;;0.00;0.00;;;;;4.66;68.34;98531.84;5076683;28;44820;-86
2021/11/27 01:51:55;;;;;;;;;0.00;0.00;;;;;4.62;67.89;98525.00;5069103;28;45419;-88
2021/11/27 01:54:21;;;;;;;;;0.00;0.00;;;;;4.53;68.56;98522.44;5065439;28;45423;-87
2021/11/27 01:56:53;;;;;;;;;0.00;0.00;;;;;4.53;68.21;98530.16;5064985;28;45570;-87
2021/11/27 01:59:18;;;;;;;;;0.00;0.00;;;;;4.33;68.83;98510.47;5062792;28;45393;-87
2021/11/27 02:01:45;;;;;;;;;0.00;0.00;;;;;4.63;68.78;98555.06;5062744;28;45500;-89
2021/11/27 02:04:11;;;;;;;;;0.00;0.00;;;;;4.50;69.20;98527.63;5062634;28;45240;-89
2021/11/27 02:06:40;;;;;;;;;0.00;0.00;;;;;4.60;69.12;98544.78;5062197;28;45258;-88
2021/11/27 02:09:13;;;;;;;;;0.00;0.00;;;;;4.67;68.51;98541.31;5062281;28;45429;-86
2021/11/27 02:11:41;;;;;;;;;0.00;0.00;;;;;4.51;69.01;98514.75;5044204;28;45664;-88
2021/11/27 02:14:08;;;;;;;;;0.00;0.00;;;;;4.42;69.24;98510.47;5063624;28;45306;-86
2021/11/27 02:16:35;;;;;;;;;0.00;0.00;;;;;4.61;69.21;98545.63;5065861;28;45318;-87
2021/11/27 02:19:02;;;;;;;;;0.00;0.00;;;;;4.30;69.45;98482.16;5066000;28;45229;-86
2021/11/27 02:21:27;;;;;;;;;0.00;0.00;;;;;4.51;69.83;98527.63;5065258;28;45600;-81
2021/11/27 02:23:54;;;;;;;;;0.00;0.00;;;;;4.61;70.03;98535.31;5066088;28;45236;-83
2021/11/27 02:26:25;;;;;;;;;0.00;0.00;;;;;4.66;69.50;98533.59;5068054;28;45485;-83
2021/11/27 02:28:56;;;;;;;;;0.00;0.00;;;;;4.55;69.48;98516.44;5068856;28;45220;-83
2021/11/27 02:31:24;;;;;;;;;0.00;0.00;;;;;4.30;69.95;98470.13;5066586;28;47026;-83
2021/11/27 02:33:50;;;;;;;;;0.00;0.00;;;;;4.59;69.71;98522.44;5047886;28;45190;-83
2021/11/27 02:36:15;;;;;;;;;0.00;0.00;;;;;4.57;70.10;98516.44;5047964;28;45254;-88
2021/11/27 02:38:41;;;;;;;;;0.00;0.00;;;;;4.44;70.03;98488.13;5045799;28;45167;-87
2021/11/27 02:41:06;;;;;;;;;0.00;0.00;;;;;4.67;69.51;98532.72;5044746;28;46279;-87
2021/11/27 02:43:32;;;;;;;;;0.00;0.00;;;;;4.61;69.29;98527.56;5044929;28;45151;-87
2021/11/27 02:45:58;;;;;;;;;0.00;0.00;;;;;4.65;69.44;98517.25;5027179;28;45450;-87
2021/11/27 02:48:23;;;;;;;;;0.00;0.00;;;;;4.51;69.52;98499.28;5045796;28;45269;-89
2021/11/27 02:50:49;;;;;;;;;0.00;0.00;;;;;4.23;69.09;98458.09;5027066;28;47308;-89
2021/11/27 02:53:16;;;;;;;;;0.00;0.00;;;;;4.41;68.98;98480.38;5027080;28;45811;-88
2021/11/27 02:55:42;;;;;;;;;0.00;0.00;;;;;4.61;69.64;98514.69;5043844;28;45363;-88
2021/11/27 02:58:08;;;;;;;;;0.00;0.00;;;;;4.40;68.97;98475.25;5043918;28;45569;-87
2021/11/27 03:00:33;;;;;;;;;0.00;0.00;;;;;4.61;69.66;98505.25;5046901;28;47226;-86
2021/11/27 03:02:59;;;;;;;;;0.00;0.00;;;;;4.58;69.51;98492.38;5047437;28;45307;-86
2021/11/27 03:05:24;;;;;;;;;0.00;0.00;;;;;4.44;69.03;98482.09;5047983;28;45170;-86
2021/11/27 03:07:50;;;;;;;;;0.00;0.00;;;;;4.47;69.23;98492.41;5048807;28;45527;-86
2021/11/27 03:10:17;;;;;;;;;0.00;0.00;;;;;4.10;69.39;98448.72;5030572;28;48165;-86
2021/11/27 03:12:43;;;;;;;;;0.00;0.00;;;;;4.36;69.47;98494.16;5047243;28;45276;-86
2021/11/27 03:15:15;;;;;;;;;0.00;0.00;;;;;4.34;69.83;98488.13;5030303;28;45291;-86
2021/11/27 03:17:42;;;;;;;;;0.00;0.00;;;;;4.16;69.36;98457.28;5041914;28;45247;-86
2021/11/27 03:20:11;;;;;;;;;0.00;0.00;;;;;3.97;69.31;98428.13;5026273;28;45989;-87
2021/11/27 03:22:37;;;;;;;;;0.00;0.00;;;;;4.10;69.57;98443.56;5041017;28;45477;-87
2021/11/27 03:25:04;;;;;;;;;2.00;0.00;;;;;4.29;69.29;98470.13;5025065;28;45295;-87
2021/11/27 03:27:30;;;;;;;;;0.00;0.00;;;;;4.01;69.72;98422.09;5035608;28;45285;-85
2021/11/27 03:29:56;;;;;;;;;0.00;0.00;;;;;3.96;68.92;98420.41;5049753;28;45085;-84
2021/11/27 03:32:22;;;;;;;;;0.00;0.00;;;;;4.30;69.61;98475.28;5065362;28;44706;-86
2021/11/27 03:34:48;;;;;;;;;0.00;0.00;;;;;4.34;69.43;98472.66;5068629;28;45222;-87
2021/11/27 03:37:15;;;;;;;;;0.00;0.00;;;;;4.28;69.48;98465.81;5066969;28;45212;-86
2021/11/27 03:39:41;;;;;;;;;0.00;0.00;;;;;3.98;69.75;98409.22;5082533;28;47406;-86
2021/11/27 03:42:12;;;;;;;;;0.00;0.00;;;;;4.22;70.19;98452.97;5067355;28;45346;-86
2021/11/27 03:44:39;;;;;;;;;0.00;0.00;;;;;4.26;69.71;98459.84;5047066;28;45215;-86
2021/11/27 03:47:05;;;;;;;;;0.00;0.00;;;;;4.03;69.00;98406.66;5043443;28;45533;-87
2021/11/27 03:49:31;;;;;;;;;0.00;0.00;;;;;3.96;69.67;98418.69;5042394;28;47205;-87
2021/11/27 03:51:58;;;;;;;;;0.00;0.00;;;;;4.23;70.08;98447.78;5043276;28;45322;-87
2021/11/27 03:54:25;;;;;;;;;0.00;0.00;;;;;4.23;69.78;98445.22;5044630;28;45430;-88
2021/11/27 03:56:51;;;;;;;;;0.00;0.00;;;;;4.11;69.72;98428.09;5044243;28;45323;-87
2021/11/27 03:59:18;;;;;;;;;0.00;0.00;;;;;4.12;69.03;98439.25;5042620;28;48386;-87
2021/11/27 04:01:43;;;;;;;;;0.00;0.00;;;;;4.00;69.44;98420.41;5043894;28;45308;-86
2021/11/27 04:04:09;;;;;;;;;0.00;0.00;;;;;3.93;69.07;98423.84;5044200;28;45545;-87
2021/11/27 04:06:37;;;;;;;;;0.00;0.00;;;;;3.98;69.06;98429.81;5073063;28;45362;-87
2021/11/27 04:09:08;;;;;;;;;0.00;0.00;;;;;3.85;69.74;98413.56;5063894;28;45315;-86
2021/11/27 04:11:35;;;;;;;;;0.00;0.00;;;;;3.54;69.83;98370.72;5114595;27;44708;-86
2021/11/27 04:14:01;;;;;;;;;0.00;0.00;;;;;3.61;69.55;98386.13;5085070;28;44899;-86
2021/11/27 04:16:26;;;;;;;;;0.00;0.00;;;;;3.61;69.63;98384.41;5073921;28;45508;-87
2021/11/27 04:18:52;;;;;;;;;0.00;0.00;;;;;3.78;70.06;98405.00;5085512;28;46317;-87
2021/11/27 04:21:19;;;;;;;;;0.00;0.00;;;;;3.57;69.32;98354.41;5100784;27;45378;-86
2021/11/27 04:23:46;;;;;;;;;0.00;0.00;;;;;3.45;69.77;98346.69;5100678;27;45305;-86
2021/11/27 04:26:12;;;;;;;;;0.00;0.00;;;;;3.68;69.79;98398.97;5084375;28;45252;-86
2021/11/27 04:28:37;;;;;;;;;0.00;0.00;;;;;3.64;69.42;98397.28;5085417;27;46911;-87
2021/11/27 04:31:03;;;;;;;;;0.00;0.00;;;;;3.51;70.09;98352.69;5063647;28;45248;-87
2021/11/27 04:33:29;;;;;;;;;0.00;0.00;;;;;3.76;69.38;98400.69;5080701;28;45775;-87
2021/11/27 04:35:55;;;;;;;;;0.00;0.00;;;;;3.69;70.16;98394.69;5099458;27;45490;-87
2021/11/27 04:38:20;;;;;;;;;0.00;0.00;;;;;3.77;69.42;98395.53;5098271;27;48308;-87
2021/11/27 04:40:46;;;;;;;;;0.00;0.00;;;;;3.64;68.83;98375.81;5098814;27;45318;-86
2021/11/27 04:43:11;;;;;;;;;0.00;0.00;;;;;3.50;69.79;98370.69;5083702;28;45319;-86
2021/11/27 04:45:37;;;;;;;;;0.00;0.00;;;;;3.43;69.51;98359.53;5099761;27;45316;-88
2021/11/27 04:48:03;;;;;;;;;0.00;0.00;;;;;3.41;70.18;98349.28;5099779;27;47116;-87
2021/11/27 04:50:31;;;;;;;;;0.00;0.00;;;;;3.58;69.63;98394.69;5084604;28;45331;-88
2021/11/27 04:52:57;;;;;;;;;0.00;0.00;;;;;3.44;69.42;98374.13;5067454;28;45257;-87
2021/11/27 04:55:23;;;;;;;;;0.00;0.00;;;;;3.56;69.28;98383.56;5085785;28;45538;-87
2021/11/27 04:57:48;;;;;;;;;0.00;0.00;;;;;3.52;69.01;98377.56;5085044;28;45296;-87
2021/11/27 05:00:21;;;;;;;;;0.00;0.00;;;;;3.47;69.29;98379.28;5084550;28;45296;-88
2021/11/27 05:02:46;;;;;;;;;0.00;0.00;;;;;3.47;69.33;98363.84;5069588;28;45275;-86
2021/11/27 05:05:12;;;;;;;;;0.00;0.00;;;;;3.63;68.77;98410.13;5062944;28;45494;-87
2021/11/27 05:07:37;;;;;;;;;0.00;0.00;;;;;3.62;69.10;98414.41;5060813;28;48243;-86
2021/11/27 05:10:03;;;;;;;;;0.00;0.00;;;;;3.69;69.58;98415.28;5063665;28;45247;-86
2021/11/27 05:12:29;;;;;;;;;0.00;0.00;;;;;3.66;70.14;98398.13;5063293;28;45248;-86
2021/11/27 05:14:54;;;;;;;;;0.00;0.00;;;;;3.54;70.04;98360.41;5044509;28;45489;-86
2021/11/27 05:17:20;;;;;;;;;1.00;0.00;;;;;3.63;69.77;98381.84;5060647;28;48192;-86
2021/11/27 05:19:46;;;;;;;;;0.00;0.00;;;;;3.71;69.34;98382.69;5044714;28;45362;-88
2021/11/27 05:22:12;;;;;;;;;0.00;0.00;;;;;3.65;69.64;98356.97;5062958;28;45292;-87
2021/11/27 05:24:43;;;;;;;;;0.00;0.00;;;;;3.67;69.56;98353.53;5062593;28;45320;-87
2021/11/27 05:27:09;;;;;;;;;0.00;0.00;;;;;3.57;68.90;98335.53;5063059;28;47032;-86
2021/11/27 05:29:35;;;;;;;;;0.00;0.00;;;;;3.52;69.82;98310.66;5079081;28;45367;-86
2021/11/27 05:32:04;;;;;;;;;0.00;0.00;;;;;3.76;68.63;98355.22;5068553;28;45296;-85
2021/11/27 05:34:35;;;;;;;;;0.00;0.00;;;;;3.69;69.10;98332.94;5086522;28;45172;-85
2021/11/27 05:37:04;;;;;;;;;0.00;0.00;;;;;3.82;69.42;98343.22;5084207;28;47336;-85
2021/11/27 05:39:30;;;;;;;;;2.00;0.00;;;;;3.93;69.22;98351.75;5108894;27;44971;-85
2021/11/27 05:41:55;;;;;;;;;0.00;0.00;;;;;3.85;68.85;98330.31;5093357;28;45276;-86
2021/11/27 05:44:21;;;;;;;;;0.00;0.00;;;;;3.59;68.73;98314.09;5087375;28;45209;-86
2021/11/27 05:46:47;;;;;;;;;0.00;0.00;;;;;3.92;68.66;98347.47;5083982;28;45296;-86
2021/11/27 05:49:12;;;;;;;;;0.00;0.00;;;;;3.85;68.00;98322.59;5086339;28;45221;-86
2021/11/27 05:51:38;;;;;;;;;0.00;0.00;;;;;3.78;69.21;98311.47;5086685;28;45313;-86
2021/11/27 05:54:04;;;;;;;;;0.00;0.00;;;;;3.88;69.53;98332.88;5068222;28;45257;-87
2021/11/27 05:56:29;;;;;;;;;0.00;0.00;;;;;3.91;68.29;98335.44;5085944;28;45304;-87
2021/11/27 05:58:56;;;;;;;;;0.00;0.00;;;;;3.90;69.18;98331.16;5086805;28;45460;-87
2021/11/27 06:01:22;;;;;;;;;0.00;0.00;;;;;3.77;68.82;98318.31;5086912;28;45233;-85
2021/11/27 06:03:48;;;;;;;;;0.00;0.00;;;;;3.70;68.88;98295.22;5086442;28;45261;-87
2021/11/27 06:06:13;;;;;;;;;0.00;0.00;;;;;4.01;68.28;98349.16;5089424;28;45432;-87
2021/11/27 06:08:38;;;;;;;;;0.00;0.00;;;;;3.72;68.26;98312.34;5087066;28;45338;-88
2021/11/27 06:11:04;;;;;;;;;0.00;0.00;;;;;3.99;68.71;98356.91;5085385;28;45231;-88
2021/11/27 06:13:29;;;;;;;;;0.00;0.00;;;;;3.75;68.66;98312.34;5086842;28;45275;-87
2021/11/27 06:15:54;;;;;;;;;0.00;0.00;;;;;3.88;69.24;98320.88;5085407;28;45393;-86
2021/11/27 06:18:20;;;;;;;;;0.00;0.00;;;;;4.05;68.07;98349.13;5087085;28;45271;-87
2021/11/27 06:20:45;;;;;;;;;0.00;0.00;;;;;3.99;68.57;98354.31;5103996;27;45242;-87
2021/11/27 06:23:10;;;;;;;;;0.00;0.00;;;;;3.89;69.40;98320.00;5088638;28;45259;-86
2021/11/27 06:25:36;;;;;;;;;0.00;0.00;;;;;3.61;68.52;98263.47;5105019;27;48355;-87
2021/11/27 06:28:01;;;;;;;;;0.00;0.00;;;;;4.10;69.07;98340.56;5089760;28;45203;-87
2021/11/27 06:30:27;;;;;;;;;0.00;0.00;;;;;4.01;68.28;98331.16;5086690;28;45295;-87
2021/11/27 06:32:52;;;;;;;;;0.00;0.00;;;;;3.69;69.07;98296.91;5076106;28;45510;-87
2021/11/27 06:35:18;;;;;;;;;0.00;0.00;;;;;3.96;68.40;98338.00;5068650;28;45286;-88
2021/11/27 06:37:43;;;;;;;;;0.00;0.00;;;;;3.96;68.46;98336.31;5066002;28;45279;-88
2021/11/27 06:40:11;;;;;;;;;1.50;0.00;;;;;4.04;68.93;98354.28;5065335;28;45300;-87
2021/11/27 06:42:36;;;;;;;;;0.00;0.00;;;;;3.91;68.91;98338.88;5065316;28;45461;-86
2021/11/27 06:45:02;;;;;;;;;0.00;0.00;;;;;4.05;69.05;98341.41;5064104;28;46537;-86
2021/11/27 06:47:28;;;;;;;;;0.00;0.00;;;;;3.84;69.07;98310.59;5064313;28;45330;-86
2021/11/27 06:49:54;;;;;;;;;0.00;0.00;;;;;4.01;69.61;98339.72;5065769;28;45376;-86
2021/11/27 06:52:19;;;;;;;;;0.00;0.00;;;;;3.92;69.74;98340.59;5064885;28;45559;-86
2021/11/27 06:54:45;;;;;;;;;0.00;0.00;;;;;3.71;70.58;98326.09;5066559;28;46555;-87
2021/11/27 06:57:11;;;;;;;;;0.00;0.00;;;;;3.58;71.40;98317.50;5065312;28;45260;-87
2021/11/27 06:59:38;;;;;;;;;0.00;0.00;;;;;3.60;70.95;98314.94;5064672;28;45204;-86
2021/11/27 07:02:04;;;;;;;;;0.00;0.00;;;;;3.51;70.82;98303.81;5065951;28;45529;-87
2021/11/27 07:04:30;;;;;;;;;0.00;0.00;;;;;3.61;71.61;98334.69;5063173;28;47698;-87
2021/11/27 07:06:56;;;;;;;;;0.00;0.00;;;;;3.54;72.04;98328.66;5064784;28;45348;-87
2021/11/27 07:09:21;;;;;;;;;0.00;0.00;;;;;3.56;71.32;98339.84;5065785;28;45301;-87
2021/11/27 07:11:47;;;;;;;;;0.00;0.00;;;;;3.48;71.78;98308.97;5064727;28;45440;-87
2021/11/27 07:14:13;;;;;;;;;0.00;0.00;;;;;3.44;72.78;98312.41;5063333;28;46102;-86
2021/11/27 07:16:39;;;;;;;;;0.00;0.00;;;;;3.60;72.12;98338.97;5049454;28;45758;-87
2021/11/27 07:19:04;;;;;;;;;0.00;0.00;;;;;3.28;72.07;98278.13;5065549;28;45724;-88
2021/11/27 07:21:29;;;;;;;;;0.00;0.00;;;;;3.57;72.21;98330.38;5063790;28;45192;-88
2021/11/27 07:23:55;;;;;;;;;0.00;0.00;;;;;3.63;72.12;98344.09;5047731;28;45518;-88
2021/11/27 07:26:21;;;;;;;;;0.00;0.00;;;;;3.17;73.12;98279.00;5064946;28;45236;-88
2021/11/27 07:28:47;;;;;;;;;0.00;0.00;;;;;3.35;72.91;98296.97;5063253;28;45395;-87
2021/11/27 07:31:12;;;;;;;;;0.00;0.00;;;;;3.56;72.70;98329.53;5066742;28;45241;-88
2021/11/27 07:33:38;;;;;;;;;0.00;0.00;;;;;3.33;72.71;98288.38;5083319;28;45442;-88
2021/11/27 07:36:04;;;;;;;;;0.00;0.00;;;;;3.60;72.88;98338.09;5082915;28;45960;-88
2021/11/27 07:38:30;;;;;;;;;0.00;0.00;;;;;3.36;73.04;98303.81;5084245;28;45452;-86
2021/11/27 07:40:56;;;;;;;;;0.00;0.00;;;;;2.92;72.18;98224.19;5084968;28;45315;-86
2021/11/27 07:43:21;;;;;;;;;0.00;0.00;;;;;3.43;73.52;98315.81;5090279;28;45398;-86
2021/11/27 07:45:46;;;;;;;;;0.00;0.00;;;;;3.48;73.17;98331.25;5090765;28;45339;-86
2021/11/27 07:48:12;;;;;;;;;0.00;0.00;;;;;3.17;73.82;98291.00;5084122;28;45317;-87
2021/11/27 07:50:37;;;;;;;;;0.00;0.00;;;;;3.40;73.71;98318.41;5085128;28;45336;-87
2021/11/27 07:53:03;;;;;;;;;0.00;0.00;;;;;3.37;72.57;98323.56;5086766;28;45624;-87
2021/11/27 07:55:29;;;;;;;;;0.00;0.00;;;;;3.17;73.05;98307.28;5102702;27;45328;-87
2021/11/27 07:57:55;;;;;;;;;0.00;0.00;;;;;3.32;73.49;98330.41;5084118;28;45331;-87
2021/11/27 08:00:21;;;;;;;;;0.00;0.00;;;;;3.40;73.76;98357.00;5066383;28;45524;-88
2021/11/27 08:02:46;;;;;;;;;0.00;0.00;;;;;3.10;73.11;98317.56;5084510;28;45348;-87
2021/11/27 08:05:12;;;;;;;;;0.00;0.00;;;;;3.00;73.00;98314.97;5086172;28;45263;-88
2021/11/27 08:07:37;;;;;;;;;0.00;0.00;;;;;3.29;73.94;98369.84;5085851;28;45262;-87
2021/11/27 08:10:09;;;;;;;;;0.00;0.00;;;;;3.27;73.86;98354.41;5071203;28;46232;-85
2021/11/27 08:12:35;;;;;;;;;0.00;0.00;;;;;2.94;73.74;98317.53;5078188;28;47261;-85
2021/11/27 08:15:00;;;;;;;;;0.00;0.00;;;;;3.15;74.50;98346.69;5064596;28;45429;-86
2021/11/27 08:17:26;;;;;;;;;0.00;0.00;;;;;3.17;73.59;98358.72;5070518;28;45728;-87
2021/11/27 08:19:51;;;;;;;;;0.00;0.00;;;;;3.06;74.46;98339.84;5051420;28;45454;-88
2021/11/27 08:22:17;;;;;;;;;0.00;0.00;;;;;2.99;73.74;98331.28;5067305;28;46319;-85
2021/11/27 08:24:43;;;;;;;;;0.00;0.00;;;;;3.19;74.04;98353.56;5074903;28;45184;-86
2021/11/27 08:27:09;;;;;;;;;0.00;0.00;;;;;3.21;74.11;98349.28;5067061;28;45348;-83
2021/11/27 08:29:34;;;;;;;;;0.00;0.00;;;;;3.11;74.26;98329.56;5062529;28;45659;-83
2021/11/27 08:32:00;;;;;;;;;0.00;0.00;;;;;3.22;73.83;98353.53;5062692;28;46206;-84
2021/11/27 08:34:25;;;;;;;;;0.00;0.00;;;;;3.20;73.68;98346.69;5061306;28;45589;-83
2021/11/27 08:36:51;;;;;;;;;0.00;0.00;;;;;3.11;73.52;98324.41;5062673;28;45482;-88
2021/11/27 08:39:16;;;;;;;;;0.00;0.00;;;;;3.39;73.71;98362.97;5044668;28;45406;-82
2021/11/27 08:41:43;;;;;;;;;0.00;0.00;;;;;3.36;73.29;98371.56;5062603;28;45475;-81
2021/11/27 08:44:09;;;;;;;;;0.50;0.00;;;;;3.24;73.70;98357.00;5063017;28;45398;-84
2021/11/27 08:46:35;;;;;;;;;0.00;0.00;;;;;3.26;73.99;98363.00;5062694;28;45304;-82
2021/11/27 08:49:01;;;;;;;;;0.00;0.00;;;;;3.24;73.86;98356.13;5063546;28;45211;-83
2021/11/27 08:51:26;;;;;;;;;0.00;0.00;;;;;3.11;74.39;98340.72;5062695;28;45229;-82
2021/11/27 08:53:52;;;;;;;;;0.00;0.00;;;;;3.41;73.91;98361.28;5062759;28;45631;-83
2021/11/27 08:56:18;;;;;;;;;0.00;0.00;;;;;3.41;74.01;98361.28;5077753;28;45434;-83
2021/11/27 08:58:43;;;;;;;;;0.00;0.00;;;;;3.30;74.12;98345.84;5064221;28;45467;-84
2021/11/27 09:01:10;;;;;;;;;0.00;0.00;;;;;3.38;74.08;98345.84;5075794;28;45556;-81
2021/11/27 09:03:36;;;;;;;;;0.00;0.00;;;;;3.39;73.40;98351.00;5080301;28;45225;-81
2021/11/27 09:06:03;;;;;;;;;0.75;0.75;;;;;3.62;73.24;98377.56;5058112;28;45347;-80
2021/11/27 09:08:29;;;;;;;;;0.00;0.00;;;;;3.52;73.38;98359.53;5072128;28;45295;-82
2021/11/27 09:10:55;;;;;;;;;0.00;0.00;;;;;3.72;74.59;98384.41;5062804;28;46225;-80
2021/11/27 09:13:20;;;;;;;;;0.00;0.00;;;;;3.60;74.13;98353.53;5058540;28;45438;-80
2021/11/27 09:15:46;;;;;;;;;0.00;0.00;;;;;3.83;74.04;98389.50;5060778;28;45363;-83
2021/11/27 09:18:11;;;;;;;;;0.00;0.00;;;;;3.78;73.30;98370.66;5077328;28;45286;-81
2021/11/27 09:20:37;;;;;;;;;0.00;0.00;;;;;3.80;72.84;98377.53;5046139;28;48262;-82
2021/11/27 09:23:04;;;;;;;;;0.00;0.00;;;;;3.70;73.87;98364.69;5060742;28;45419;-82
2021/11/27 09:25:29;;;;;;;;;0.00;0.00;;;;;3.85;73.46;98395.53;5076851;27;45427;-80
2021/11/27 09:27:56;;;;;;;;;0.00;0.00;;;;;3.84;73.77;98392.97;5062237;28;45572;-80
2021/11/27 09:30:23;;;;;;;;;0.00;0.00;;;;;3.96;73.23;98398.09;5068330;28;46451;-81
2021/11/27 09:32:48;;;;;;;;;0.00;0.00;;;;;3.96;73.53;98379.22;5068333;28;45485;-84
2021/11/27 09:35:14;;;;;;;;;0.00;0.00;;;;;4.09;72.86;98409.22;5075271;28;45448;-80
2021/11/27 09:37:40;;;;;;;;;0.00;0.00;;;;;3.90;73.54;98373.22;5067836;28;45335;-80
2021/11/27 09:40:07;;;;;;;;;0.00;0.00;;;;;4.15;73.37;98409.22;5049829;28;47390;-81
2021/11/27 09:42:34;;;;;;;;;0.00;0.00;;;;;4.12;72.58;98403.19;5072999;28;45412;-79
2021/11/27 09:45:01;;;;;;;;;0.00;0.00;;;;;3.47;73.21;98302.13;5053137;28;45826;-79
2021/11/27 09:47:27;;;;;;;;;0.00;0.00;;;;;4.07;73.27;98404.94;5073740;28;45544;-81
2021/11/27 09:49:56;;;;;;;;;0.00;0.00;;;;;4.00;73.50;98381.78;5062700;28;45496;-78
2021/11/27 09:52:22;;;;;;;;;0.00;0.00;;;;;3.98;72.45;98369.78;5073528;27;45290;-83
2021/11/27 09:54:48;;;;;;;;;0.00;0.00;;;;;4.11;72.71;98389.47;5082606;28;45522;-77
2021/11/27 09:57:14;;;;;;;;;0.00;0.00;;;;;4.47;72.88;98435.72;5074066;28;45248;-77
2021/11/27 09:59:41;;;;;;;;;0.00;0.00;;;;;4.26;72.98;98379.97;5069912;28;45571;-77
2021/11/27 10:02:11;;;;;;;;;0.00;0.00;;;;;4.47;72.37;98427.16;5066632;28;45461;-80
2021/11/27 10:04:47;;;;;;;;;0.00;0.00;;;;;4.42;72.33;98433.19;5081807;28;45216;-80
2021/11/27 10:07:16;;;;;;;;;0.00;0.00;;;;;4.27;72.44;98400.59;5066196;28;45216;-78
2021/11/27 10:09:45;;;;;;;;;0.00;0.00;;;;;4.41;72.42;98433.19;5067897;28;46268;-78
2021/11/27 10:12:11;;;;;;;;;0.00;0.00;;;;;4.25;72.66;98406.59;5056097;28;45279;-78
2021/11/27 10:14:39;;;;;;;;;0.00;0.00;;;;;4.41;72.54;98433.19;5066617;28;45464;-79
2021/11/27 10:17:16;;;;;;;;;0.00;0.00;;;;;4.46;73.26;98428.84;5069017;28;45582;-78
2021/11/27 10:19:41;;;;;;;;;0.00;0.00;;;;;4.56;73.19;98427.94;5067053;28;46485;-78
2021/11/27 10:22:08;;;;;;;;;0.00;0.00;;;;;4.49;72.85;98417.66;5063816;28;45264;-76
2021/11/27 10:24:34;;;;;;;;;0.00;0.00;;;;;4.62;72.70;98434.78;5047624;28;45363;-78
2021/11/27 10:27:02;;;;;;;;;0.00;0.00;;;;;4.65;72.78;98433.91;5064488;28;45248;-75
2021/11/27 10:29:34;;;;;;;;;0.00;0.00;;;;;4.69;72.01;98443.38;5063313;28;46106;-75
2021/11/27 10:32:05;;;;;;;;;0.25;0.00;;;;;4.76;72.60;98437.31;5056526;28;45295;-76
2021/11/27 10:34:32;;;;;;;;;0.00;0.00;;;;;4.68;71.96;98428.75;5101811;27;45357;-75
2021/11/27 10:36:57;;;;;;;;;0.00;0.00;;;;;4.59;71.94;98421.91;5085257;28;45451;-77
2021/11/27 10:39:22;;;;;;;;;0.00;0.00;;;;;4.59;72.54;98423.66;5078251;28;46742;-79
2021/11/27 10:42:00;;;;;;;;;0.00;0.00;;;;;4.60;71.53;98423.66;5056747;28;45401;-78
2021/11/27 10:44:37;;;;;;;;;0.00;0.00;;;;;4.63;71.73;98436.50;5063827;28;45248;-79
2021/11/27 10:47:16;;;;;;;;;0.00;0.00;;;;;4.66;72.01;98443.38;5079524;28;45269;-78
2021/11/27 10:49:43;;;;;;;;;0.00;0.00;;;;;4.60;72.36;98426.22;5064146;28;45367;-79
2021/11/27 10:52:12;;;;;;;;;0.00;0.00;;;;;4.62;72.44;98419.34;5064137;28;45335;-78
2021/11/27 10:54:49;;;;;;;;;0.00;0.00;;;;;4.82;72.60;98445.03;5051851;28;45462;-78
2021/11/27 10:57:31;;;;;;;;;0.00;0.00;;;;;4.84;72.20;98439.84;5059849;28;45650;-76
2021/11/27 10:59:59;;;;;;;;;0.00;0.00;;;;;4.49;72.08;98392.78;5056919;28;47339;-76
2021/11/27 11:02:31;;;;;;;;;0.00;0.00;;;;;4.68;71.21;98421.03;5063309;28;45539;-76
2021/11/27 11:05:15;;;;;;;;;0.00;0.00;;;;;4.78;71.56;98434.75;5062017;28;45466;-80
2021/11/27 11:07:51;;;;;;;;;0.00;0.00;;;;;4.53;72.12;98403.91;5068230;27;45443;-78
2021/11/27 11:10:20;;;;;;;;;0.00;0.00;;;;;4.86;72.43;98438.13;5062006;28;45608;-75
2021/11/27 11:12:50;;;;;;;;;0.00;0.00;;;;;4.82;71.71;98439.88;5074783;28;45336;-78
2021/11/27 11:15:26;;;;;;;;;0.00;0.00;;;;;4.88;72.21;98440.69;5072236;28;45174;-80
2021/11/27 11:18:07;;;;;;;;;0.00;0.00;;;;;4.98;71.06;98442.38;5068139;28;45314;-78
2021/11/27 11:20:33;;;;;;;;;0.00;0.00;;;;;5.10;70.67;98444.03;5062397;28;48505;-84
2021/11/27 11:23:14;;;;;;;;;0.00;0.00;;;;;5.20;71.59;98453.41;5065797;28;45292;-79
2021/11/27 11:25:58;;;;;;;;;0.00;0.00;;;;;5.30;71.10;98449.03;5061948;28;45315;-80
2021/11/27 11:28:27;;;;;;;;;0.00;0.00;;;;;5.46;71.12;98448.94;5070779;28;45331;-75
2021/11/27 11:31:00;;;;;;;;;0.00;0.00;;;;;5.41;70.66;98432.63;5080841;27;48228;-77
2021/11/27 11:33:26;;;;;;;;;0.00;0.00;;;;;5.50;70.20;98455.78;5076519;28;45392;-76
2021/11/27 11:35:52;;;;;;;;;0.00;0.00;;;;;5.60;70.55;98458.31;5076498;28;45498;-76
2021/11/27 11:38:19;;;;;;;;;0.00;0.00;;;;;5.60;70.38;98448.81;5070008;28;45468;-76
2021/11/27 11:40:45;;;;;;;;;0.00;0.00;;;;;5.78;70.48;98463.31;5065010;28;45473;-76